createdAt,value
2022-10-07T00:00:11.362Z,7.52
2022-10-07T00:02:40.815Z,7.45
2022-10-07T00:05:10.343Z,7.45
2022-10-07T00:07:39.166Z,7.42
2022-10-07T00:10:09.306Z,7.35
2022-10-07T00:12:39.429Z,7.29
2022-10-07T00:15:09.891Z,7.44
2022-10-07T00:17:42.147Z,7.41
2022-10-07T00:20:11.429Z,7.32
2022-10-07T00:22:40.296Z,7.24
2022-10-07T00:25:09.981Z,7.29
2022-10-07T00:27:40.122Z,7.29
2022-10-07T00:30:10.904Z,7.26
2022-10-07T00:32:39.719Z,7.17
2022-10-07T00:35:09.506Z,7.20
2022-10-07T00:37:43.187Z,7.32
2022-10-07T00:40:14.726Z,7.43
2022-10-07T00:42:44.866Z,7.41
2022-10-07T00:45:16.661Z,7.26
2022-10-07T00:47:49.567Z,7.19
2022-10-07T00:50:25.586Z,7.23
2022-10-07T00:53:01.447Z,7.39
2022-10-07T00:55:33.024Z,7.30
2022-10-07T00:58:08.135Z,7.25
2022-10-07T01:00:37.671Z,7.10
2022-10-07T01:03:06.749Z,7.03
2022-10-07T01:05:35.451Z,7.16
2022-10-07T01:08:05.286Z,7.30
2022-10-07T01:10:49.513Z,7.21
2022-10-07T01:13:32.582Z,7.11
2022-10-07T01:16:14.098Z,7.18
2022-10-07T01:18:55.256Z,7.17
2022-10-07T01:21:41.019Z,7.03
2022-10-07T01:28:46.837Z,6.89
2022-10-07T01:31:37.418Z,6.87
2022-10-07T01:34:11.842Z,6.84
2022-10-07T01:36:43.116Z,6.80
2022-10-07T01:39:17.965Z,6.77
2022-10-07T01:41:47.559Z,6.75
2022-10-07T01:44:17.744Z,6.72
2022-10-07T01:46:47.941Z,6.70
2022-10-07T01:49:16.953Z,6.69
2022-10-07T01:52:04.816Z,6.64
2022-10-07T01:54:57.680Z,6.61
2022-10-07T01:57:41.579Z,6.67
2022-10-07T02:00:17.924Z,6.63
2022-10-07T02:03:30.605Z,6.66
2022-10-07T02:06:11.737Z,6.62
2022-10-07T02:08:49.002Z,6.62
2022-10-07T02:11:22.983Z,6.54
2022-10-07T02:14:06.306Z,6.51
2022-10-07T02:16:44.006Z,6.49
2022-10-07T02:19:19.908Z,6.54
2022-10-07T02:21:52.414Z,6.57
2022-10-07T02:24:25.007Z,6.49
2022-10-07T02:26:58.259Z,6.46
2022-10-07T02:29:32.340Z,6.47
2022-10-07T02:32:14.759Z,6.57
2022-10-07T02:34:46.697Z,6.58
2022-10-07T02:37:24.183Z,6.43
2022-10-07T02:39:56.015Z,6.45
2022-10-07T02:42:34.876Z,6.43
2022-10-07T02:45:16.762Z,6.38
2022-10-07T02:47:56.041Z,6.39
2022-10-07T02:50:31.636Z,6.41
2022-10-07T02:53:04.470Z,6.38
2022-10-07T02:55:35.266Z,6.31
2022-10-07T02:58:09.429Z,6.26
2022-10-07T03:00:55.814Z,6.32
2022-10-07T03:03:54.796Z,6.35
2022-10-07T03:06:43.461Z,6.26
2022-10-07T03:09:13.087Z,6.31
2022-10-07T03:11:43.234Z,6.23
2022-10-07T03:14:19.107Z,6.20
2022-10-07T03:16:48.225Z,6.22
2022-10-07T03:19:18.734Z,6.16
2022-10-07T03:21:56.960Z,6.15
2022-10-07T03:24:26.683Z,6.29
2022-10-07T03:26:55.613Z,6.29
2022-10-07T03:29:26.190Z,6.14
2022-10-07T03:31:55.556Z,6.11
2022-10-07T03:34:27.447Z,6.14
2022-10-07T03:36:56.912Z,6.19
2022-10-07T03:39:25.742Z,6.17
2022-10-07T03:41:54.477Z,6.09
2022-10-07T03:44:23.177Z,6.09
2022-10-07T03:46:54.182Z,6.14
2022-10-07T03:49:27.658Z,6.09
2022-10-07T03:51:58.759Z,6.07
2022-10-07T03:54:27.545Z,6.06
2022-10-07T03:57:27.705Z,6.10
2022-10-07T03:59:59.919Z,6.15
2022-10-07T04:02:31.903Z,6.12
2022-10-07T04:05:02.187Z,6.10
2022-10-07T04:07:35.016Z,6.01
2022-10-07T04:10:04.941Z,6.04
2022-10-07T04:12:33.784Z,5.97
2022-10-07T04:15:03.234Z,5.94
2022-10-07T04:17:35.080Z,5.95
2022-10-07T04:20:05.882Z,5.94
2022-10-07T04:22:39.095Z,5.99
2022-10-07T04:25:32.881Z,5.94
2022-10-07T04:28:06.897Z,5.95
2022-10-07T04:30:43.879Z,5.99
2022-10-07T04:33:14.913Z,6.04
2022-10-07T04:35:51.747Z,5.99
2022-10-07T04:38:23.307Z,6.00
2022-10-07T04:40:55.084Z,6.04
2022-10-07T04:43:23.750Z,5.98
2022-10-07T04:46:05.653Z,5.97
2022-10-07T04:48:45.752Z,5.97
2022-10-07T04:51:18.607Z,5.94
2022-10-07T04:53:56.912Z,5.94
2022-10-07T04:56:31.920Z,5.91
2022-10-07T04:59:02.472Z,6.01
2022-10-07T05:01:31.639Z,6.01
2022-10-07T05:04:00.816Z,6.01
2022-10-07T05:06:33.621Z,5.99
2022-10-07T05:09:02.862Z,5.88
2022-10-07T05:11:35.353Z,5.98
2022-10-07T05:14:10.079Z,5.96
2022-10-07T05:17:05.032Z,5.95
2022-10-07T05:19:36.405Z,5.89
2022-10-07T05:22:06.889Z,5.99
2022-10-07T05:24:38.577Z,5.97
2022-10-07T05:27:08.891Z,5.98
2022-10-07T05:29:37.831Z,5.98
2022-10-07T05:32:06.606Z,6.00
2022-10-07T05:34:35.727Z,6.10
2022-10-07T05:37:05.783Z,6.09
2022-10-07T05:39:34.504Z,6.07
2022-10-07T05:42:12.287Z,6.01
2022-10-07T05:44:46.096Z,5.99
2022-10-07T05:47:18.072Z,5.93
2022-10-07T05:49:47.064Z,5.95
2022-10-07T05:52:19.642Z,6.05
2022-10-07T05:54:48.432Z,6.14
2022-10-07T05:57:17.481Z,6.18
2022-10-07T05:59:46.396Z,6.29
2022-10-07T06:02:18.915Z,6.37
2022-10-07T06:04:50.155Z,6.41
2022-10-07T06:07:28.998Z,6.45
2022-10-07T06:10:17.724Z,6.46
2022-10-07T06:13:06.233Z,6.54
2022-10-07T06:15:36.433Z,6.60
2022-10-07T06:18:06.677Z,6.67
2022-10-07T06:20:36.067Z,6.70
2022-10-07T06:23:07.404Z,6.77
2022-10-07T06:25:36.327Z,6.76
2022-10-07T06:28:05.077Z,6.82
2022-10-07T06:30:33.872Z,6.90
2022-10-07T06:33:04.049Z,6.94
2022-10-07T06:35:33.951Z,7.01
2022-10-07T06:38:02.677Z,7.07
2022-10-07T06:40:33.558Z,7.10
2022-10-07T06:43:02.347Z,7.07
2022-10-07T06:45:37.133Z,7.18
2022-10-07T06:48:06.203Z,7.26
2022-10-07T06:50:34.913Z,7.30
2022-10-07T06:53:04.131Z,7.36
2022-10-07T06:55:40.784Z,7.43
2022-10-07T06:58:11.867Z,7.47
2022-10-07T07:00:42.239Z,7.52
2022-10-07T07:03:12.383Z,7.59
2022-10-07T07:05:45.308Z,7.65
2022-10-07T07:08:19.179Z,7.71
2022-10-07T07:10:49.715Z,7.76
2022-10-07T07:13:19.527Z,7.83
2022-10-07T07:15:57.017Z,7.91
2022-10-07T07:18:27.433Z,7.97
2022-10-07T07:20:56.135Z,8.04
2022-10-07T07:23:26.276Z,8.12
2022-10-07T07:25:56.358Z,8.18
2022-10-07T07:28:25.108Z,8.27
2022-10-07T07:30:53.898Z,8.34
2022-10-07T07:33:22.621Z,8.43
2022-10-07T07:35:51.400Z,8.50
2022-10-07T07:38:24.766Z,8.60
2022-10-07T07:40:56.730Z,8.67
2022-10-07T07:43:25.423Z,8.76
2022-10-07T07:45:55.516Z,8.84
2022-10-07T07:48:24.455Z,8.92
2022-10-07T07:50:53.282Z,9.01
2022-10-07T07:53:22.937Z,9.10
2022-10-07T07:56:00.221Z,9.21
2022-10-07T07:58:30.098Z,9.31
2022-10-07T08:01:01.382Z,9.40
2022-10-07T08:03:31.562Z,9.52
2022-10-07T08:06:03.323Z,9.63
2022-10-07T08:08:34.280Z,9.73
2022-10-07T08:11:10.767Z,9.85
2022-10-07T08:13:41.360Z,9.99
2022-10-07T08:16:14.543Z,10.12
2022-10-07T08:18:46.585Z,10.26
2022-10-07T08:21:17.769Z,10.41
2022-10-07T08:23:52.848Z,10.57
2022-10-07T08:26:23.461Z,10.71
2022-10-07T08:28:52.966Z,10.88
2022-10-07T08:31:23.507Z,11.05
2022-10-07T08:33:52.537Z,11.26
2022-10-07T08:36:24.176Z,11.49
2022-10-07T08:38:55.034Z,11.75
2022-10-07T08:41:42.854Z,12.04
2022-10-07T08:44:29.215Z,12.37
2022-10-07T08:47:12.244Z,12.68
2022-10-07T08:49:56.846Z,12.98
2022-10-07T08:52:36.746Z,13.27
2022-10-07T08:55:17.979Z,13.54
2022-10-07T08:58:19.789Z,13.89
2022-10-07T09:00:56.574Z,14.21
2022-10-07T09:03:42.202Z,14.53
2022-10-07T09:06:16.817Z,14.79
2022-10-07T09:08:53.658Z,14.98
2022-10-07T09:11:26.015Z,15.23
2022-10-07T09:14:05.133Z,15.44
2022-10-07T09:16:41.889Z,15.59
2022-10-07T09:19:21.940Z,15.70
2022-10-07T09:21:52.173Z,15.85
2022-10-07T09:24:24.880Z,16.00
2022-10-07T09:26:57.097Z,16.10
2022-10-07T09:29:31.172Z,16.25
2022-10-07T09:32:00.250Z,16.36
2022-10-07T09:34:31.834Z,16.52
2022-10-07T09:37:15.921Z,16.68
2022-10-07T09:39:46.882Z,16.76
2022-10-07T09:42:32.605Z,16.96
2022-10-07T09:45:25.448Z,17.00
2022-10-07T09:48:27.751Z,17.16
2022-10-07T09:51:16.528Z,17.30
2022-10-07T09:54:02.072Z,17.46
2022-10-07T09:56:41.487Z,17.62
2022-10-07T09:59:21.983Z,17.70
2022-10-07T10:01:56.006Z,17.77
2022-10-07T10:04:32.766Z,17.85
2022-10-07T10:07:07.433Z,17.86
2022-10-07T10:09:36.403Z,17.74
2022-10-07T10:12:16.611Z,17.52
2022-10-07T10:14:51.134Z,17.29
2022-10-07T10:17:34.893Z,17.11
2022-10-07T10:20:39.768Z,16.97
2022-10-07T10:23:30.836Z,16.74
2022-10-07T10:26:33.692Z,16.66
2022-10-07T10:29:25.434Z,16.56
2022-10-07T10:32:34.184Z,16.56
2022-10-07T10:35:12.961Z,16.60
2022-10-07T10:38:14.727Z,16.77
2022-10-07T10:40:55.390Z,17.16
2022-10-07T10:43:35.574Z,17.60
2022-10-07T10:46:30.756Z,17.68
2022-10-07T10:49:21.096Z,18.05
2022-10-07T10:52:28.057Z,18.08
2022-10-07T10:55:24.346Z,18.06
2022-10-07T10:58:07.956Z,18.06
2022-10-07T11:00:57.632Z,18.13
2022-10-07T11:03:59.076Z,18.21
2022-10-07T11:06:33.308Z,17.91
2022-10-07T11:09:03.829Z,17.77
2022-10-07T11:11:49.220Z,17.56
2022-10-07T11:14:24.007Z,17.28
2022-10-07T11:16:59.324Z,17.08
2022-10-07T11:19:33.337Z,16.98
2022-10-07T11:22:05.574Z,16.91
2022-10-07T11:24:42.875Z,16.84
2022-10-07T11:27:17.900Z,16.77
2022-10-07T11:29:56.389Z,16.65
2022-10-07T11:32:32.437Z,16.56
2022-10-07T11:35:27.133Z,16.47
2022-10-07T11:38:04.688Z,16.36
2022-10-07T11:40:42.166Z,16.29
2022-10-07T11:43:22.950Z,16.18
2022-10-07T11:45:57.896Z,16.16
2022-10-07T11:48:37.743Z,16.13
2022-10-07T11:51:11.180Z,16.04
2022-10-07T11:53:42.135Z,16.05
2022-10-07T11:56:23.220Z,16.02
2022-10-07T11:59:02.147Z,16.02
2022-10-07T12:01:55.368Z,15.95
2022-10-07T12:04:47.532Z,15.91
2022-10-07T12:07:58.998Z,15.94
2022-10-07T12:10:34.396Z,15.89
2022-10-07T12:13:41.030Z,15.93
2022-10-07T12:17:02.979Z,15.97
2022-10-07T12:19:33.649Z,15.97
2022-10-07T12:22:19.565Z,16.01
2022-10-07T12:25:32.676Z,15.96
2022-10-07T12:28:02.962Z,15.95
2022-10-07T12:30:51.896Z,15.95
2022-10-07T12:33:35.669Z,15.99
2022-10-07T12:36:30.178Z,16.03
2022-10-07T12:39:40.304Z,16.03
2022-10-07T12:42:16.723Z,16.01
2022-10-07T12:44:51.447Z,15.96
2022-10-07T12:47:29.843Z,15.94
2022-10-07T12:50:05.059Z,15.92
2022-10-07T12:57:04.061Z,15.91
2022-10-07T12:59:53.417Z,15.91
2022-10-07T13:03:17.435Z,15.92
2022-10-07T13:06:40.372Z,15.90
2022-10-07T13:10:00.642Z,15.87
2022-10-07T13:12:48.875Z,15.88
2022-10-07T13:15:41.660Z,15.89
2022-10-07T13:18:45.088Z,15.92
2022-10-07T13:21:28.723Z,15.88
2022-10-07T13:23:58.685Z,15.87
2022-10-07T13:27:01.266Z,15.85
2022-10-07T13:30:40.492Z,15.82
2022-10-07T13:33:23.981Z,15.80
2022-10-07T13:37:08.243Z,15.80
2022-10-07T13:39:37.065Z,15.78
2022-10-07T13:42:06.287Z,15.75
2022-10-07T13:46:02.485Z,15.72
2022-10-07T13:48:40.744Z,15.61
2022-10-07T13:51:52.916Z,15.59
2022-10-07T13:54:28.041Z,15.57
2022-10-07T14:01:12.243Z,15.52
2022-10-07T14:04:52.189Z,15.50
2022-10-07T14:07:24.193Z,15.45
2022-10-07T14:10:10.085Z,15.41
2022-10-07T14:12:44.832Z,15.41
2022-10-07T14:15:19.844Z,15.39
2022-10-07T14:17:54.832Z,15.38
2022-10-07T14:20:32.222Z,15.35
2022-10-07T14:28:05.089Z,15.32
2022-10-07T14:31:00.864Z,15.28
2022-10-07T14:34:00.973Z,15.24
2022-10-07T14:37:09.412Z,15.21
2022-10-07T14:40:19.830Z,15.15
2022-10-07T14:42:54.771Z,15.11
2022-10-07T14:45:24.378Z,15.08
2022-10-07T14:47:55.475Z,15.07
2022-10-07T14:50:25.009Z,15.07
2022-10-07T14:52:56.068Z,15.06
2022-10-07T14:55:28.497Z,15.11
2022-10-07T14:57:57.486Z,15.13
2022-10-07T15:00:32.939Z,15.16
2022-10-07T15:03:06.374Z,15.14
2022-10-07T15:05:35.295Z,15.16
2022-10-07T15:08:05.494Z,15.17
2022-10-07T15:10:34.232Z,15.18
2022-10-07T15:13:04.154Z,15.20
2022-10-07T15:15:33.500Z,15.19
2022-10-07T15:18:02.192Z,15.22
2022-10-07T15:20:31.004Z,15.21
2022-10-07T15:23:00.576Z,15.23
2022-10-07T15:25:36.983Z,15.26
2022-10-07T15:28:05.888Z,15.25
2022-10-07T15:30:39.191Z,15.27
2022-10-07T15:33:08.719Z,15.29
2022-10-07T15:35:37.426Z,15.31
2022-10-07T15:38:06.634Z,15.28
2022-10-07T15:40:57.966Z,15.28
2022-10-07T15:43:32.123Z,15.27
2022-10-07T15:46:02.950Z,15.24
2022-10-07T15:48:31.826Z,15.22
2022-10-07T15:51:00.829Z,15.20
2022-10-07T15:53:31.107Z,15.16
2022-10-07T15:56:01.640Z,15.12
2022-10-07T15:58:31.621Z,15.05
2022-10-07T16:01:02.175Z,14.98
2022-10-07T16:03:56.769Z,14.93
2022-10-07T16:06:31.349Z,14.88
2022-10-07T16:09:02.604Z,14.84
2022-10-07T16:11:35.709Z,14.79
2022-10-07T16:14:04.963Z,14.78
2022-10-07T16:16:34.960Z,14.74
2022-10-07T16:19:04.999Z,14.74
2022-10-07T16:21:36.597Z,14.71
2022-10-07T16:24:08.911Z,14.67
2022-10-07T16:26:43.771Z,14.68
2022-10-07T16:29:34.996Z,14.69
2022-10-07T16:32:05.137Z,14.67
2022-10-07T16:34:36.337Z,14.66
2022-10-07T16:37:06.048Z,14.65
2022-10-07T16:39:35.044Z,14.61
2022-10-07T16:42:05.369Z,14.57
2022-10-07T16:44:34.104Z,14.59
2022-10-07T16:47:30.441Z,14.58
2022-10-07T16:49:59.637Z,14.60
2022-10-07T16:52:28.326Z,14.60
2022-10-07T16:54:57.142Z,14.61
2022-10-07T16:57:27.531Z,14.58
2022-10-07T17:00:04.230Z,14.57
2022-10-07T17:03:01.036Z,14.57
2022-10-07T17:05:57.610Z,14.57
2022-10-07T17:08:42.772Z,14.56
2022-10-07T17:11:29.861Z,14.56
2022-10-07T17:14:12.176Z,14.54
2022-10-07T17:16:44.876Z,14.51
2022-10-07T17:19:25.353Z,14.52
2022-10-07T17:21:57.338Z,14.51
2022-10-07T17:24:26.960Z,14.50
2022-10-07T17:26:58.821Z,14.44
2022-10-07T17:29:56.871Z,14.41
2022-10-07T17:32:42.826Z,14.36
2022-10-07T17:36:32.296Z,14.31
2022-10-07T17:39:08.066Z,14.26
2022-10-07T17:41:40.161Z,14.26
2022-10-07T17:44:13.515Z,14.23
2022-10-07T17:46:44.907Z,14.20
2022-10-07T17:49:17.886Z,14.13
2022-10-07T17:52:05.893Z,14.13
2022-10-07T17:54:36.479Z,14.06
2022-10-07T17:57:06.541Z,14.04
2022-10-07T17:59:38.321Z,14.01
2022-10-07T18:02:16.392Z,13.95
2022-10-07T18:04:47.785Z,13.85
2022-10-07T18:07:17.885Z,13.81
2022-10-07T18:09:50.297Z,13.83
2022-10-07T18:12:39.563Z,13.82
2022-10-07T18:15:25.490Z,13.80
2022-10-07T18:18:05.292Z,13.71
2022-10-07T18:20:43.359Z,13.64
2022-10-07T18:23:17.629Z,13.61
2022-10-07T18:26:02.611Z,13.56
2022-10-07T18:28:35.932Z,13.58
2022-10-07T18:35:36.725Z,13.49
2022-10-07T18:38:27.203Z,13.39
2022-10-07T18:41:03.258Z,13.41
2022-10-07T18:43:33.300Z,13.37
2022-10-07T18:46:05.701Z,13.34
2022-10-07T18:48:38.394Z,13.31
2022-10-07T18:51:10.045Z,13.20
2022-10-07T18:53:46.917Z,13.14
2022-10-07T18:57:11.514Z,13.10
2022-10-07T18:59:21.027Z,13.01
2022-10-07T19:01:51.680Z,12.96
2022-10-07T19:04:57.843Z,12.93
2022-10-07T19:10:43.030Z,12.89
2022-10-07T19:13:33.938Z,12.85
2022-10-07T19:16:39.542Z,12.77
2022-10-07T19:22:59.002Z,12.68
2022-10-07T19:25:52.931Z,12.60
2022-10-07T19:28:53.150Z,12.54
2022-10-07T19:31:26.583Z,12.49
2022-10-07T19:34:05.581Z,12.47
2022-10-07T19:36:38.050Z,12.47
2022-10-07T19:39:12.009Z,12.43
2022-10-07T19:41:43.444Z,12.35
2022-10-07T19:44:13.601Z,12.30
2022-10-07T19:47:01.652Z,12.24
2022-10-07T19:49:30.643Z,12.21
2022-10-07T19:52:44.125Z,12.19
2022-10-07T19:55:14.927Z,12.11
2022-10-07T19:57:57.950Z,12.10
2022-10-07T20:00:29.931Z,12.03
2022-10-07T20:02:59.358Z,11.97
2022-10-07T20:05:31.836Z,11.94
2022-10-07T20:08:14.413Z,11.97
2022-10-07T20:10:44.807Z,11.94
2022-10-07T20:13:14.671Z,11.91
2022-10-07T20:15:43.814Z,11.84
2022-10-07T20:18:15.811Z,11.78
2022-10-07T20:21:06.758Z,11.74
2022-10-07T20:23:40.500Z,11.73
2022-10-07T20:26:15.200Z,11.70
2022-10-07T20:28:44.334Z,11.71
2022-10-07T20:31:16.652Z,11.67
2022-10-07T20:34:20.243Z,11.65
2022-10-07T20:45:26.363Z,11.51
2022-10-07T20:53:44.862Z,11.44
2022-10-07T20:56:20.364Z,11.38
2022-10-07T21:20:36.173Z,11.23
2022-10-07T21:27:55.846Z,11.13
2022-10-07T21:35:19.641Z,11.05
2022-10-07T21:37:51.352Z,11.06
2022-10-07T21:41:43.329Z,11.08
2022-10-07T21:54:08.350Z,11.01
2022-10-07T22:35:48.243Z,10.70
2022-10-07T22:38:27.027Z,10.72
2022-10-07T22:41:02.800Z,10.66
2022-10-07T22:44:01.782Z,10.69
2022-10-07T22:50:42.588Z,10.69
2022-10-07T23:07:06.012Z,10.67
2022-10-07T23:09:36.586Z,10.63
2022-10-07T23:12:43.544Z,10.51
2022-10-07T23:15:16.001Z,10.43
2022-10-07T23:17:46.579Z,10.44
2022-10-07T23:20:31.883Z,10.41
2022-10-07T23:24:20.934Z,10.35
2022-10-07T23:27:00.863Z,10.34
2022-10-07T23:29:32.851Z,10.30
2022-10-07T23:32:19.295Z,10.26
2022-10-07T23:34:49.486Z,10.22
2022-10-07T23:37:19.749Z,10.18
2022-10-07T23:39:52.489Z,10.18
2022-10-07T23:42:25.552Z,10.17
2022-10-07T23:44:56.480Z,10.21
2022-10-07T23:47:26.539Z,10.17
2022-10-07T23:50:07.517Z,10.23
2022-10-07T23:52:38.710Z,10.25
2022-10-07T23:55:13.265Z,10.25
2022-10-07T23:57:42.589Z,10.23
